sensor_id;sensor_type;location;lat;lon;timestamp;temperature;humidity
31639;DHT22;18248;51.522;7.020;2023-06-26T00:01:17;23.70;99.90
31639;DHT22;18248;51.522;7.020;2023-06-26T00:04:19;23.60;99.90
31639;DHT22;18248;51.522;7.020;2023-06-26T00:07:17;23.60;99.90
31639;DHT22;18248;51.522;7.020;2023-06-26T00:10:16;23.50;99.90
31639;DHT22;18248;51.522;7.020;2023-06-26T00:13:14;23.50;99.90
31639;DHT22;18248;51.522;7.020;2023-06-26T00:16:14;23.50;99.90
31639;DHT22;18248;51.522;7.020;2023-06-26T00:19:13;23.50;99.90
31639;DHT22;18248;51.522;7.020;2023-06-26T00:22:11;23.30;99.90
31639;DHT22;18248;51.522;7.020;2023-06-26T00:25:10;23.30;99.90
31639;DHT22;18248;51.522;7.020;2023-06-26T00:28:10;23.20;99.90
31639;DHT22;18248;51.522;7.020;2023-06-26T00:31:08;23.30;99.90
31639;DHT22;18248;51.522;7.020;2023-06-26T00:34:07;23.20;99.90
31639;DHT22;18248;51.522;7.020;2023-06-26T00:37:06;23.30;99.90
31639;DHT22;18248;51.522;7.020;2023-06-26T00:40:05;23.20;99.90
31639;DHT22;18248;51.522;7.020;2023-06-26T00:43:03;23.20;99.90
31639;DHT22;18248;51.522;7.020;2023-06-26T00:46:02;23.10;99.90
31639;DHT22;18248;51.522;7.020;2023-06-26T00:49:02;23.10;99.90
31639;DHT22;18248;51.522;7.020;2023-06-26T00:52:01;23.10;99.90
31639;DHT22;18248;51.522;7.020;2023-06-26T00:55:02;23.10;99.90
31639;DHT22;18248;51.522;7.020;2023-06-26T00:58:00;23.00;99.90
31639;DHT22;18248;51.522;7.020;2023-06-26T01:00:59;22.90;99.90
31639;DHT22;18248;51.522;7.020;2023-06-26T01:03:59;22.80;99.90
31639;DHT22;18248;51.522;7.020;2023-06-26T01:06:59;22.80;99.90
31639;DHT22;18248;51.522;7.020;2023-06-26T01:09:58;22.70;99.90
31639;DHT22;18248;51.522;7.020;2023-06-26T01:12:57;22.70;99.90
31639;DHT22;18248;51.522;7.020;2023-06-26T01:15:57;22.60;99.90
31639;DHT22;18248;51.522;7.020;2023-06-26T01:18:57;22.60;99.90
31639;DHT22;18248;51.522;7.020;2023-06-26T01:25:09;22.60;99.90
31639;DHT22;18248;51.522;7.020;2023-06-26T01:28:10;22.60;99.90
31639;DHT22;18248;51.522;7.020;2023-06-26T01:31:11;22.50;99.90
31639;DHT22;18248;51.522;7.020;2023-06-26T01:34:10;22.40;99.90
31639;DHT22;18248;51.522;7.020;2023-06-26T01:37:09;22.40;99.90
31639;DHT22;18248;51.522;7.020;2023-06-26T01:40:08;22.40;99.90
31639;DHT22;18248;51.522;7.020;2023-06-26T01:43:14;22.40;99.90
31639;DHT22;18248;51.522;7.020;2023-06-26T01:46:36;22.40;99.90
31639;DHT22;18248;51.522;7.020;2023-06-26T01:49:56;22.30;99.90
31639;DHT22;18248;51.522;7.020;2023-06-26T01:53:12;22.20;99.90
31639;DHT22;18248;51.522;7.020;2023-06-26T01:56:14;22.20;99.90
31639;DHT22;18248;51.522;7.020;2023-06-26T01:59:14;22.20;99.90
31639;DHT22;18248;51.522;7.020;2023-06-26T02:02:13;22.10;99.90
31639;DHT22;18248;51.522;7.020;2023-06-26T02:05:12;22.10;99.90
31639;DHT22;18248;51.522;7.020;2023-06-26T02:08:14;22.10;99.90
31639;DHT22;18248;51.522;7.020;2023-06-26T02:11:12;22.20;99.90
31639;DHT22;18248;51.522;7.020;2023-06-26T02:14:11;22.20;99.90
31639;DHT22;18248;51.522;7.020;2023-06-26T02:17:10;22.10;99.90
31639;DHT22;18248;51.522;7.020;2023-06-26T02:20:09;22.10;99.90
31639;DHT22;18248;51.522;7.020;2023-06-26T02:23:08;22.00;99.90
31639;DHT22;18248;51.522;7.020;2023-06-26T02:26:07;22.00;99.90
31639;DHT22;18248;51.522;7.020;2023-06-26T02:29:05;22.00;99.90
31639;DHT22;18248;51.522;7.020;2023-06-26T02:32:05;22.00;99.90
31639;DHT22;18248;51.522;7.020;2023-06-26T02:35:04;21.90;99.90
31639;DHT22;18248;51.522;7.020;2023-06-26T02:38:03;21.90;99.90
31639;DHT22;18248;51.522;7.020;2023-06-26T02:41:02;21.90;99.90
31639;DHT22;18248;51.522;7.020;2023-06-26T02:44:01;21.90;99.90
31639;DHT22;18248;51.522;7.020;2023-06-26T02:47:00;21.80;99.90
31639;DHT22;18248;51.522;7.020;2023-06-26T02:49:58;21.80;99.90
31639;DHT22;18248;51.522;7.020;2023-06-26T02:52:57;21.80;99.90
31639;DHT22;18248;51.522;7.020;2023-06-26T02:55:55;21.80;99.90
31639;DHT22;18248;51.522;7.020;2023-06-26T02:58:54;21.80;99.90
31639;DHT22;18248;51.522;7.020;2023-06-26T03:01:52;21.80;99.90
31639;DHT22;18248;51.522;7.020;2023-06-26T03:04:51;21.70;99.90
31639;DHT22;18248;51.522;7.020;2023-06-26T03:07:51;21.70;99.90
31639;DHT22;18248;51.522;7.020;2023-06-26T03:10:49;21.70;99.90
31639;DHT22;18248;51.522;7.020;2023-06-26T03:13:48;21.80;99.90
31639;DHT22;18248;51.522;7.020;2023-06-26T03:16:46;21.80;99.90
31639;DHT22;18248;51.522;7.020;2023-06-26T03:19:45;21.90;99.90
31639;DHT22;18248;51.522;7.020;2023-06-26T03:22:45;21.90;99.90
31639;DHT22;18248;51.522;7.020;2023-06-26T03:25:43;22.10;99.90
31639;DHT22;18248;51.522;7.020;2023-06-26T03:28:42;22.20;99.90
31639;DHT22;18248;51.522;7.020;2023-06-26T03:31:40;22.30;99.90
31639;DHT22;18248;51.522;7.020;2023-06-26T03:34:39;22.40;99.90
31639;DHT22;18248;51.522;7.020;2023-06-26T03:37:37;22.40;99.90
31639;DHT22;18248;51.522;7.020;2023-06-26T03:40:36;22.50;99.90
31639;DHT22;18248;51.522;7.020;2023-06-26T03:43:34;22.50;99.90
31639;DHT22;18248;51.522;7.020;2023-06-26T03:46:34;22.60;99.90
31639;DHT22;18248;51.522;7.020;2023-06-26T03:49:34;22.70;99.90
31639;DHT22;18248;51.522;7.020;2023-06-26T03:52:32;22.70;99.90
31639;DHT22;18248;51.522;7.020;2023-06-26T03:55:31;22.80;99.90
31639;DHT22;18248;51.522;7.020;2023-06-26T03:58:30;22.70;99.90
31639;DHT22;18248;51.522;7.020;2023-06-26T04:01:28;22.80;99.90
31639;DHT22;18248;51.522;7.020;2023-06-26T04:04:27;22.80;99.90
31639;DHT22;18248;51.522;7.020;2023-06-26T04:07:26;22.80;99.90
31639;DHT22;18248;51.522;7.020;2023-06-26T04:10:24;22.80;99.90
31639;DHT22;18248;51.522;7.020;2023-06-26T04:13:23;22.90;99.90
31639;DHT22;18248;51.522;7.020;2023-06-26T04:16:22;22.90;99.90
31639;DHT22;18248;51.522;7.020;2023-06-26T04:19:23;23.00;99.90
31639;DHT22;18248;51.522;7.020;2023-06-26T04:22:22;23.00;99.90
31639;DHT22;18248;51.522;7.020;2023-06-26T04:25:20;23.00;99.90
31639;DHT22;18248;51.522;7.020;2023-06-26T04:28:22;23.10;99.90
31639;DHT22;18248;51.522;7.020;2023-06-26T04:31:20;23.00;99.90
31639;DHT22;18248;51.522;7.020;2023-06-26T04:34:19;23.10;99.90
31639;DHT22;18248;51.522;7.020;2023-06-26T04:37:17;23.20;99.90
31639;DHT22;18248;51.522;7.020;2023-06-26T04:40:16;23.20;99.90
31639;DHT22;18248;51.522;7.020;2023-06-26T04:43:15;23.20;99.90
31639;DHT22;18248;51.522;7.020;2023-06-26T04:46:13;23.20;99.90
31639;DHT22;18248;51.522;7.020;2023-06-26T04:49:12;23.30;99.90
31639;DHT22;18248;51.522;7.020;2023-06-26T04:52:11;23.40;99.90
31639;DHT22;18248;51.522;7.020;2023-06-26T04:55:13;23.40;99.90
31639;DHT22;18248;51.522;7.020;2023-06-26T04:58:11;23.70;99.90
31639;DHT22;18248;51.522;7.020;2023-06-26T05:01:10;24.50;99.90
31639;DHT22;18248;51.522;7.020;2023-06-26T05:04:14;25.30;99.90
31639;DHT22;18248;51.522;7.020;2023-06-26T05:07:13;25.60;99.90
31639;DHT22;18248;51.522;7.020;2023-06-26T05:10:12;26.20;99.90
31639;DHT22;18248;51.522;7.020;2023-06-26T05:13:10;26.30;99.90
31639;DHT22;18248;51.522;7.020;2023-06-26T05:16:09;26.60;99.90
31639;DHT22;18248;51.522;7.020;2023-06-26T05:19:07;27.00;99.90
31639;DHT22;18248;51.522;7.020;2023-06-26T05:22:06;27.20;99.90
31639;DHT22;18248;51.522;7.020;2023-06-26T05:25:08;27.20;99.90
31639;DHT22;18248;51.522;7.020;2023-06-26T05:28:08;27.60;99.90
31639;DHT22;18248;51.522;7.020;2023-06-26T05:31:09;27.90;99.90
31639;DHT22;18248;51.522;7.020;2023-06-26T05:34:07;27.20;99.90
31639;DHT22;18248;51.522;7.020;2023-06-26T05:37:08;26.60;99.90
31639;DHT22;18248;51.522;7.020;2023-06-26T05:40:08;26.20;99.90
31639;DHT22;18248;51.522;7.020;2023-06-26T05:43:07;26.00;99.90
31639;DHT22;18248;51.522;7.020;2023-06-26T05:46:06;25.80;99.90
31639;DHT22;18248;51.522;7.020;2023-06-26T05:49:05;25.50;99.90
31639;DHT22;18248;51.522;7.020;2023-06-26T05:52:04;25.10;99.90
31639;DHT22;18248;51.522;7.020;2023-06-26T05:55:03;24.90;99.90
31639;DHT22;18248;51.522;7.020;2023-06-26T05:58:02;25.50;99.90
31639;DHT22;18248;51.522;7.020;2023-06-26T06:01:03;26.60;99.90
31639;DHT22;18248;51.522;7.020;2023-06-26T06:04:02;27.00;99.90
31639;DHT22;18248;51.522;7.020;2023-06-26T06:07:01;27.10;99.90
31639;DHT22;18248;51.522;7.020;2023-06-26T06:10:00;28.10;99.90
31639;DHT22;18248;51.522;7.020;2023-06-26T06:12:58;28.60;99.90
31639;DHT22;18248;51.522;7.020;2023-06-26T06:15:57;28.50;99.90
31639;DHT22;18248;51.522;7.020;2023-06-26T06:18:55;27.90;99.90
31639;DHT22;18248;51.522;7.020;2023-06-26T06:21:54;27.30;99.90
31639;DHT22;18248;51.522;7.020;2023-06-26T06:24:52;26.70;99.90
31639;DHT22;18248;51.522;7.020;2023-06-26T06:27:51;26.30;99.90
31639;DHT22;18248;51.522;7.020;2023-06-26T06:30:50;26.50;99.90
31639;DHT22;18248;51.522;7.020;2023-06-26T06:33:48;27.30;99.90
31639;DHT22;18248;51.522;7.020;2023-06-26T06:36:47;27.10;99.90
31639;DHT22;18248;51.522;7.020;2023-06-26T06:39:45;26.50;99.90
31639;DHT22;18248;51.522;7.020;2023-06-26T06:42:44;25.90;99.90
31639;DHT22;18248;51.522;7.020;2023-06-26T06:45:42;25.40;99.90
31639;DHT22;18248;51.522;7.020;2023-06-26T06:48:41;25.50;99.90
31639;DHT22;18248;51.522;7.020;2023-06-26T06:51:40;26.90;99.90
31639;DHT22;18248;51.522;7.020;2023-06-26T06:54:54;28.50;99.90
31639;DHT22;18248;51.522;7.020;2023-06-26T06:57:53;29.70;99.90
31639;DHT22;18248;51.522;7.020;2023-06-26T07:00:52;30.30;99.90
31639;DHT22;18248;51.522;7.020;2023-06-26T07:03:50;30.90;99.90
31639;DHT22;18248;51.522;7.020;2023-06-26T07:06:49;31.30;99.90
31639;DHT22;18248;51.522;7.020;2023-06-26T07:09:47;31.80;99.90
31639;DHT22;18248;51.522;7.020;2023-06-26T07:12:46;32.30;99.00
31639;DHT22;18248;51.522;7.020;2023-06-26T07:15:46;32.20;97.30
31639;DHT22;18248;51.522;7.020;2023-06-26T07:18:46;32.30;96.00
31639;DHT22;18248;51.522;7.020;2023-06-26T07:21:44;32.30;95.70
31639;DHT22;18248;51.522;7.020;2023-06-26T07:24:44;33.00;94.20
31639;DHT22;18248;51.522;7.020;2023-06-26T07:27:43;33.30;93.00
31639;DHT22;18248;51.522;7.020;2023-06-26T07:30:43;33.70;91.50
31639;DHT22;18248;51.522;7.020;2023-06-26T07:33:41;33.00;90.80
31639;DHT22;18248;51.522;7.020;2023-06-26T07:36:40;32.10;91.70
31639;DHT22;18248;51.522;7.020;2023-06-26T07:39:40;32.30;93.00
31639;DHT22;18248;51.522;7.020;2023-06-26T07:42:38;33.10;92.00
31639;DHT22;18248;51.522;7.020;2023-06-26T07:45:38;33.60;90.80
31639;DHT22;18248;51.522;7.020;2023-06-26T07:48:38;34.00;90.10
31639;DHT22;18248;51.522;7.020;2023-06-26T07:51:36;34.20;88.40
31639;DHT22;18248;51.522;7.020;2023-06-26T07:54:35;34.40;87.00
31639;DHT22;18248;51.522;7.020;2023-06-26T07:57:34;34.30;85.40
31639;DHT22;18248;51.522;7.020;2023-06-26T08:00:32;34.20;84.00
31639;DHT22;18248;51.522;7.020;2023-06-26T08:03:31;34.20;84.30
31639;DHT22;18248;51.522;7.020;2023-06-26T08:06:29;34.60;83.60
31639;DHT22;18248;51.522;7.020;2023-06-26T08:09:30;34.70;81.00
31639;DHT22;18248;51.522;7.020;2023-06-26T08:12:29;33.90;81.30
31639;DHT22;18248;51.522;7.020;2023-06-26T08:15:27;33.10;82.90
31639;DHT22;18248;51.522;7.020;2023-06-26T08:18:26;32.20;85.70
31639;DHT22;18248;51.522;7.020;2023-06-26T08:21:24;32.00;88.10
31639;DHT22;18248;51.522;7.020;2023-06-26T08:24:25;31.80;87.20
31639;DHT22;18248;51.522;7.020;2023-06-26T08:27:23;31.50;88.40
31639;DHT22;18248;51.522;7.020;2023-06-26T08:30:22;30.70;89.80
31639;DHT22;18248;51.522;7.020;2023-06-26T08:33:23;30.00;91.10
31639;DHT22;18248;51.522;7.020;2023-06-26T08:36:21;29.40;93.00
31639;DHT22;18248;51.522;7.020;2023-06-26T08:39:20;29.80;93.80
31639;DHT22;18248;51.522;7.020;2023-06-26T08:42:19;30.10;93.40
31639;DHT22;18248;51.522;7.020;2023-06-26T08:45:20;30.20;93.50
31639;DHT22;18248;51.522;7.020;2023-06-26T08:48:21;30.20;92.80
31639;DHT22;18248;51.522;7.020;2023-06-26T08:51:20;29.50;93.60
31639;DHT22;18248;51.522;7.020;2023-06-26T08:54:24;28.80;94.50
31639;DHT22;18248;51.522;7.020;2023-06-26T08:57:30;28.30;96.00
31639;DHT22;18248;51.522;7.020;2023-06-26T09:00:29;27.80;97.90
31639;DHT22;18248;51.522;7.020;2023-06-26T09:03:28;27.70;99.60
31639;DHT22;18248;51.522;7.020;2023-06-26T09:06:27;27.80;99.90
31639;DHT22;18248;51.522;7.020;2023-06-26T09:09:26;27.70;99.90
31639;DHT22;18248;51.522;7.020;2023-06-26T09:12:27;27.70;99.90
31639;DHT22;18248;51.522;7.020;2023-06-26T09:15:26;27.50;99.90
31639;DHT22;18248;51.522;7.020;2023-06-26T09:18:24;27.40;99.90
31639;DHT22;18248;51.522;7.020;2023-06-26T09:21:23;27.60;99.90
31639;DHT22;18248;51.522;7.020;2023-06-26T09:24:23;27.90;99.90
31639;DHT22;18248;51.522;7.020;2023-06-26T09:27:23;28.10;99.90
31639;DHT22;18248;51.522;7.020;2023-06-26T09:30:22;28.30;99.90
31639;DHT22;18248;51.522;7.020;2023-06-26T09:33:21;28.60;99.90
31639;DHT22;18248;51.522;7.020;2023-06-26T09:36:20;28.40;99.90
31639;DHT22;18248;51.522;7.020;2023-06-26T09:39:21;28.40;99.90
31639;DHT22;18248;51.522;7.020;2023-06-26T09:42:20;28.60;99.90
31639;DHT22;18248;51.522;7.020;2023-06-26T09:45:19;28.90;99.90
31639;DHT22;18248;51.522;7.020;2023-06-26T09:48:20;28.80;99.90
31639;DHT22;18248;51.522;7.020;2023-06-26T09:51:22;28.40;99.90
31639;DHT22;18248;51.522;7.020;2023-06-26T09:54:22;28.40;99.80
31639;DHT22;18248;51.522;7.020;2023-06-26T09:57:21;28.40;99.90
31639;DHT22;18248;51.522;7.020;2023-06-26T10:00:20;28.40;99.20
31639;DHT22;18248;51.522;7.020;2023-06-26T10:03:19;28.20;99.30
31639;DHT22;18248;51.522;7.020;2023-06-26T10:06:39;28.00;98.00
31639;DHT22;18248;51.522;7.020;2023-06-26T10:09:42;27.60;96.80
31639;DHT22;18248;51.522;7.020;2023-06-26T10:12:46;27.30;97.00
31639;DHT22;18248;51.522;7.020;2023-06-26T10:15:46;26.90;97.80
31639;DHT22;18248;51.522;7.020;2023-06-26T10:18:46;26.80;98.80
31639;DHT22;18248;51.522;7.020;2023-06-26T10:21:47;27.00;99.00
31639;DHT22;18248;51.522;7.020;2023-06-26T10:24:47;27.60;98.10
31639;DHT22;18248;51.522;7.020;2023-06-26T10:27:55;27.80;96.80
31639;DHT22;18248;51.522;7.020;2023-06-26T10:30:55;28.00;95.30
31639;DHT22;18248;51.522;7.020;2023-06-26T10:33:54;28.10;95.50
31639;DHT22;18248;51.522;7.020;2023-06-26T10:37:01;28.30;94.50
31639;DHT22;18248;51.522;7.020;2023-06-26T10:40:00;28.50;94.90
31639;DHT22;18248;51.522;7.020;2023-06-26T10:43:09;28.60;93.80
31639;DHT22;18248;51.522;7.020;2023-06-26T10:46:09;28.60;93.20
31639;DHT22;18248;51.522;7.020;2023-06-26T10:49:12;28.60;93.40
31639;DHT22;18248;51.522;7.020;2023-06-26T10:52:12;28.40;93.30
31639;DHT22;18248;51.522;7.020;2023-06-26T10:55:13;28.20;94.60
31639;DHT22;18248;51.522;7.020;2023-06-26T10:58:41;28.00;95.50
31639;DHT22;18248;51.522;7.020;2023-06-26T11:01:40;27.70;97.10
31639;DHT22;18248;51.522;7.020;2023-06-26T11:04:49;27.30;97.50
31639;DHT22;18248;51.522;7.020;2023-06-26T11:08:09;27.00;97.90
31639;DHT22;18248;51.522;7.020;2023-06-26T11:11:08;26.70;97.70
31639;DHT22;18248;51.522;7.020;2023-06-26T11:14:07;26.50;98.30
31639;DHT22;18248;51.522;7.020;2023-06-26T11:17:06;26.80;99.00
31639;DHT22;18248;51.522;7.020;2023-06-26T11:20:10;27.00;98.20
31639;DHT22;18248;51.522;7.020;2023-06-26T11:23:09;27.30;97.10
31639;DHT22;18248;51.522;7.020;2023-06-26T11:26:21;27.00;95.00
31639;DHT22;18248;51.522;7.020;2023-06-26T11:29:19;26.90;94.30
31639;DHT22;18248;51.522;7.020;2023-06-26T11:32:19;26.90;94.20
31639;DHT22;18248;51.522;7.020;2023-06-26T11:35:24;26.90;93.80
31639;DHT22;18248;51.522;7.020;2023-06-26T11:38:28;26.80;92.50
31639;DHT22;18248;51.522;7.020;2023-06-26T11:41:37;27.00;92.30
31639;DHT22;18248;51.522;7.020;2023-06-26T11:44:40;27.20;92.10
31639;DHT22;18248;51.522;7.020;2023-06-26T11:47:39;27.30;92.40
31639;DHT22;18248;51.522;7.020;2023-06-26T11:50:38;27.00;91.60
31639;DHT22;18248;51.522;7.020;2023-06-26T11:53:40;26.80;92.40
31639;DHT22;18248;51.522;7.020;2023-06-26T11:56:40;26.70;91.60
31639;DHT22;18248;51.522;7.020;2023-06-26T11:59:40;26.90;90.80
31639;DHT22;18248;51.522;7.020;2023-06-26T12:02:38;27.00;90.00
31639;DHT22;18248;51.522;7.020;2023-06-26T12:05:37;27.10;88.90
31639;DHT22;18248;51.522;7.020;2023-06-26T12:08:36;27.10;87.20
31639;DHT22;18248;51.522;7.020;2023-06-26T12:11:36;27.10;86.90
31639;DHT22;18248;51.522;7.020;2023-06-26T12:14:35;27.20;85.70
31639;DHT22;18248;51.522;7.020;2023-06-26T12:17:37;27.30;85.00
31639;DHT22;18248;51.522;7.020;2023-06-26T12:20:40;27.40;83.50
31639;DHT22;18248;51.522;7.020;2023-06-26T12:23:39;27.60;85.50
31639;DHT22;18248;51.522;7.020;2023-06-26T12:26:38;27.70;82.10
31639;DHT22;18248;51.522;7.020;2023-06-26T12:29:38;27.80;80.30
31639;DHT22;18248;51.522;7.020;2023-06-26T12:32:37;28.10;80.00
31639;DHT22;18248;51.522;7.020;2023-06-26T12:35:36;28.10;74.90
31639;DHT22;18248;51.522;7.020;2023-06-26T12:38:36;28.20;74.40
31639;DHT22;18248;51.522;7.020;2023-06-26T12:41:35;27.80;74.10
31639;DHT22;18248;51.522;7.020;2023-06-26T12:44:33;27.60;75.50
31639;DHT22;18248;51.522;7.020;2023-06-26T12:47:32;27.70;76.80
31639;DHT22;18248;51.522;7.020;2023-06-26T12:50:37;27.90;76.40
31639;DHT22;18248;51.522;7.020;2023-06-26T12:53:36;27.60;76.30
31639;DHT22;18248;51.522;7.020;2023-06-26T12:56:35;27.60;76.10
31639;DHT22;18248;51.522;7.020;2023-06-26T12:59:37;27.40;76.20
31639;DHT22;18248;51.522;7.020;2023-06-26T13:02:36;27.40;76.40
31639;DHT22;18248;51.522;7.020;2023-06-26T13:05:34;27.50;76.40
31639;DHT22;18248;51.522;7.020;2023-06-26T13:08:34;27.80;75.10
31639;DHT22;18248;51.522;7.020;2023-06-26T13:11:33;28.00;74.30
31639;DHT22;18248;51.522;7.020;2023-06-26T13:14:34;28.30;73.40
31639;DHT22;18248;51.522;7.020;2023-06-26T13:17:32;28.30;71.30
31639;DHT22;18248;51.522;7.020;2023-06-26T13:20:31;28.10;69.30
31639;DHT22;18248;51.522;7.020;2023-06-26T13:23:30;28.00;70.00
31639;DHT22;18248;51.522;7.020;2023-06-26T13:26:28;28.20;69.90
31639;DHT22;18248;51.522;7.020;2023-06-26T13:29:27;28.10;69.00
31639;DHT22;18248;51.522;7.020;2023-06-26T13:32:25;27.80;68.30
31639;DHT22;18248;51.522;7.020;2023-06-26T13:35:25;27.40;68.20
31639;DHT22;18248;51.522;7.020;2023-06-26T13:38:24;27.30;68.30
31639;DHT22;18248;51.522;7.020;2023-06-26T13:41:24;27.50;69.30
31639;DHT22;18248;51.522;7.020;2023-06-26T13:44:23;27.50;67.60
31639;DHT22;18248;51.522;7.020;2023-06-26T13:47:21;27.50;67.70
31639;DHT22;18248;51.522;7.020;2023-06-26T13:50:21;27.80;67.60
31639;DHT22;18248;51.522;7.020;2023-06-26T13:53:20;27.90;67.20
31639;DHT22;18248;51.522;7.020;2023-06-26T13:56:19;27.60;64.90
31639;DHT22;18248;51.522;7.020;2023-06-26T13:59:18;27.30;65.10
31639;DHT22;18248;51.522;7.020;2023-06-26T14:02:17;27.20;66.00
31639;DHT22;18248;51.522;7.020;2023-06-26T14:05:15;27.00;66.00
31639;DHT22;18248;51.522;7.020;2023-06-26T14:08:16;27.00;66.00
31639;DHT22;18248;51.522;7.020;2023-06-26T14:11:15;27.30;67.00
31639;DHT22;18248;51.522;7.020;2023-06-26T14:14:14;27.50;65.40
31639;DHT22;18248;51.522;7.020;2023-06-26T14:17:12;27.60;65.50
31639;DHT22;18248;51.522;7.020;2023-06-26T14:20:14;27.60;64.90
31639;DHT22;18248;51.522;7.020;2023-06-26T14:23:13;27.70;64.80
31639;DHT22;18248;51.522;7.020;2023-06-26T14:26:11;27.40;64.90
31639;DHT22;18248;51.522;7.020;2023-06-26T14:29:10;27.30;65.60
31639;DHT22;18248;51.522;7.020;2023-06-26T14:32:08;27.40;65.40
31639;DHT22;18248;51.522;7.020;2023-06-26T14:35:07;27.70;65.60
31639;DHT22;18248;51.522;7.020;2023-06-26T14:38:06;27.60;65.50
31639;DHT22;18248;51.522;7.020;2023-06-26T14:41:04;27.80;65.70
31639;DHT22;18248;51.522;7.020;2023-06-26T14:44:03;27.70;64.00
31639;DHT22;18248;51.522;7.020;2023-06-26T14:47:03;27.70;64.20
31639;DHT22;18248;51.522;7.020;2023-06-26T14:50:02;27.60;64.30
31639;DHT22;18248;51.522;7.020;2023-06-26T14:53:01;27.50;65.40
31639;DHT22;18248;51.522;7.020;2023-06-26T14:56:01;27.10;64.10
31639;DHT22;18248;51.522;7.020;2023-06-26T14:59:01;26.90;65.40
31639;DHT22;18248;51.522;7.020;2023-06-26T15:01:59;26.80;66.80
31639;DHT22;18248;51.522;7.020;2023-06-26T15:05:00;26.80;68.20
31639;DHT22;18248;51.522;7.020;2023-06-26T15:07:59;26.90;69.40
31639;DHT22;18248;51.522;7.020;2023-06-26T15:10:58;27.00;70.10
31639;DHT22;18248;51.522;7.020;2023-06-26T15:13:57;27.20;70.70
31639;DHT22;18248;51.522;7.020;2023-06-26T15:16:55;27.30;69.90
31639;DHT22;18248;51.522;7.020;2023-06-26T15:19:54;27.10;69.90
31639;DHT22;18248;51.522;7.020;2023-06-26T15:22:54;26.90;70.70
31639;DHT22;18248;51.522;7.020;2023-06-26T15:25:53;26.90;70.80
31639;DHT22;18248;51.522;7.020;2023-06-26T15:28:52;26.70;72.20
31639;DHT22;18248;51.522;7.020;2023-06-26T15:31:53;26.70;72.20
31639;DHT22;18248;51.522;7.020;2023-06-26T15:34:54;26.60;72.50
31639;DHT22;18248;51.522;7.020;2023-06-26T15:37:53;26.80;72.30
31639;DHT22;18248;51.522;7.020;2023-06-26T15:40:52;26.90;70.80
31639;DHT22;18248;51.522;7.020;2023-06-26T15:43:50;26.80;71.20
31639;DHT22;18248;51.522;7.020;2023-06-26T15:46:49;26.60;71.80
31639;DHT22;18248;51.522;7.020;2023-06-26T15:49:48;26.50;72.40
31639;DHT22;18248;51.522;7.020;2023-06-26T15:52:47;26.40;72.60
31639;DHT22;18248;51.522;7.020;2023-06-26T15:55:46;26.20;72.60
31639;DHT22;18248;51.522;7.020;2023-06-26T15:58:45;25.90;72.70
31639;DHT22;18248;51.522;7.020;2023-06-26T16:01:45;25.90;73.40
31639;DHT22;18248;51.522;7.020;2023-06-26T16:04:44;25.90;73.90
31639;DHT22;18248;51.522;7.020;2023-06-26T16:07:42;25.80;73.40
31639;DHT22;18248;51.522;7.020;2023-06-26T16:10:41;25.80;71.80
31639;DHT22;18248;51.522;7.020;2023-06-26T16:13:39;26.00;71.30
31639;DHT22;18248;51.522;7.020;2023-06-26T16:16:38;26.00;70.80
31639;DHT22;18248;51.522;7.020;2023-06-26T16:19:36;25.80;70.10
31639;DHT22;18248;51.522;7.020;2023-06-26T16:22:35;25.70;70.70
31639;DHT22;18248;51.522;7.020;2023-06-26T16:25:34;25.50;70.90
31639;DHT22;18248;51.522;7.020;2023-06-26T16:28:32;25.30;71.90
31639;DHT22;18248;51.522;7.020;2023-06-26T16:31:31;25.40;73.20
31639;DHT22;18248;51.522;7.020;2023-06-26T16:34:29;25.50;72.50
31639;DHT22;18248;51.522;7.020;2023-06-26T16:37:28;25.30;72.10
31639;DHT22;18248;51.522;7.020;2023-06-26T16:40:27;25.20;72.40
31639;DHT22;18248;51.522;7.020;2023-06-26T16:43:26;25.10;72.10
31639;DHT22;18248;51.522;7.020;2023-06-26T16:46:24;25.00;72.20
31639;DHT22;18248;51.522;7.020;2023-06-26T16:49:24;25.00;72.20
31639;DHT22;18248;51.522;7.020;2023-06-26T16:52:23;24.90;72.30
31639;DHT22;18248;51.522;7.020;2023-06-26T16:55:22;24.90;72.90
31639;DHT22;18248;51.522;7.020;2023-06-26T16:58:21;24.80;72.80
31639;DHT22;18248;51.522;7.020;2023-06-26T17:01:22;24.70;73.00
31639;DHT22;18248;51.522;7.020;2023-06-26T17:04:24;24.60;72.30
31639;DHT22;18248;51.522;7.020;2023-06-26T17:07:22;24.40;72.70
31639;DHT22;18248;51.522;7.020;2023-06-26T17:10:21;24.40;72.80
31639;DHT22;18248;51.522;7.020;2023-06-26T17:13:20;24.50;72.60
31639;DHT22;18248;51.522;7.020;2023-06-26T17:16:18;24.40;72.50
31639;DHT22;18248;51.522;7.020;2023-06-26T17:19:17;24.30;72.70
31639;DHT22;18248;51.522;7.020;2023-06-26T17:22:15;24.30;74.40
31639;DHT22;18248;51.522;7.020;2023-06-26T17:25:14;24.30;74.20
31639;DHT22;18248;51.522;7.020;2023-06-26T17:28:12;24.40;75.10
31639;DHT22;18248;51.522;7.020;2023-06-26T17:31:11;24.40;75.30
31639;DHT22;18248;51.522;7.020;2023-06-26T17:34:10;24.60;76.40
31639;DHT22;18248;51.522;7.020;2023-06-26T17:37:08;24.70;75.70
31639;DHT22;18248;51.522;7.020;2023-06-26T17:40:07;24.80;75.00
31639;DHT22;18248;51.522;7.020;2023-06-26T17:43:07;24.80;74.60
31639;DHT22;18248;51.522;7.020;2023-06-26T17:46:06;24.70;74.80
31639;DHT22;18248;51.522;7.020;2023-06-26T17:49:05;24.70;75.10
31639;DHT22;18248;51.522;7.020;2023-06-26T17:52:04;24.40;75.30
31639;DHT22;18248;51.522;7.020;2023-06-26T17:55:03;24.50;75.70
31639;DHT22;18248;51.522;7.020;2023-06-26T17:58:02;24.50;75.40
31639;DHT22;18248;51.522;7.020;2023-06-26T18:01:01;24.50;75.30
31639;DHT22;18248;51.522;7.020;2023-06-26T18:03:59;24.40;74.90
31639;DHT22;18248;51.522;7.020;2023-06-26T18:06:58;24.50;75.50
31639;DHT22;18248;51.522;7.020;2023-06-26T18:09:57;24.60;75.30
31639;DHT22;18248;51.522;7.020;2023-06-26T18:12:55;24.60;75.30
31639;DHT22;18248;51.522;7.020;2023-06-26T18:15:54;24.60;74.60
31639;DHT22;18248;51.522;7.020;2023-06-26T18:18:53;24.50;74.10
31639;DHT22;18248;51.522;7.020;2023-06-26T18:21:51;24.50;74.20
31639;DHT22;18248;51.522;7.020;2023-06-26T18:24:50;24.60;74.70
31639;DHT22;18248;51.522;7.020;2023-06-26T18:27:49;24.50;73.90
31639;DHT22;18248;51.522;7.020;2023-06-26T18:30:48;24.60;74.20
31639;DHT22;18248;51.522;7.020;2023-06-26T18:33:47;24.50;74.00
31639;DHT22;18248;51.522;7.020;2023-06-26T18:36:45;24.50;74.20
31639;DHT22;18248;51.522;7.020;2023-06-26T18:39:46;24.40;74.30
31639;DHT22;18248;51.522;7.020;2023-06-26T18:42:44;24.20;74.30
31639;DHT22;18248;51.522;7.020;2023-06-26T18:45:45;24.00;74.20
31639;DHT22;18248;51.522;7.020;2023-06-26T18:48:45;23.80;74.60
31639;DHT22;18248;51.522;7.020;2023-06-26T18:51:44;23.80;75.50
31639;DHT22;18248;51.522;7.020;2023-06-26T18:54:42;23.80;75.70
31639;DHT22;18248;51.522;7.020;2023-06-26T18:57:41;23.70;75.40